sensor_id;sensor_type;location;lat;lon;timestamp;P1;durP1;ratioP1;P2;durP2;ratioP2
14698;SDS011;7439;50.804;4.602;2022-10-16T00:01:04;14.83;;;13.93;;
14698;SDS011;7439;50.804;4.602;2022-10-16T00:03:33;14.80;;;13.20;;
14698;SDS011;7439;50.804;4.602;2022-10-16T00:06:01;13.47;;;12.77;;
14698;SDS011;7439;50.804;4.602;2022-10-16T00:08:29;12.87;;;12.07;;
14698;SDS011;7439;50.804;4.602;2022-10-16T00:11:00;12.90;;;12.27;;
14698;SDS011;7439;50.804;4.602;2022-10-16T00:13:29;14.63;;;13.67;;
14698;SDS011;7439;50.804;4.602;2022-10-16T00:15:57;14.90;;;13.70;;
14698;SDS011;7439;50.804;4.602;2022-10-16T00:18:24;13.77;;;12.77;;
14698;SDS011;7439;50.804;4.602;2022-10-16T00:20:54;16.97;;;14.27;;
14698;SDS011;7439;50.804;4.602;2022-10-16T00:23:22;15.87;;;14.77;;
14698;SDS011;7439;50.804;4.602;2022-10-16T00:25:55;16.60;;;15.27;;
14698;SDS011;7439;50.804;4.602;2022-10-16T00:28:23;14.93;;;14.17;;
14698;SDS011;7439;50.804;4.602;2022-10-16T00:30:50;12.87;;;11.93;;
14698;SDS011;7439;50.804;4.602;2022-10-16T00:33:18;13.77;;;13.07;;
14698;SDS011;7439;50.804;4.602;2022-10-16T00:35:45;13.43;;;12.70;;
14698;SDS011;7439;50.804;4.602;2022-10-16T00:38:14;14.67;;;13.77;;
14698;SDS011;7439;50.804;4.602;2022-10-16T00:40:41;13.20;;;12.40;;
14698;SDS011;7439;50.804;4.602;2022-10-16T00:43:12;13.63;;;13.00;;
14698;SDS011;7439;50.804;4.602;2022-10-16T00:45:40;13.40;;;12.70;;
14698;SDS011;7439;50.804;4.602;2022-10-16T00:48:10;13.90;;;12.90;;
14698;SDS011;7439;50.804;4.602;2022-10-16T00:50:39;13.97;;;13.33;;
14698;SDS011;7439;50.804;4.602;2022-10-16T00:53:09;14.00;;;12.57;;
14698;SDS011;7439;50.804;4.602;2022-10-16T00:55:38;13.40;;;12.67;;
14698;SDS011;7439;50.804;4.602;2022-10-16T00:58:06;16.70;;;15.70;;
14698;SDS011;7439;50.804;4.602;2022-10-16T01:00:33;15.30;;;14.03;;
14698;SDS011;7439;50.804;4.602;2022-10-16T01:03:01;15.37;;;14.30;;
14698;SDS011;7439;50.804;4.602;2022-10-16T01:05:31;15.17;;;14.33;;
14698;SDS011;7439;50.804;4.602;2022-10-16T01:08:05;16.27;;;15.13;;
14698;SDS011;7439;50.804;4.602;2022-10-16T01:10:40;17.63;;;16.23;;
14698;SDS011;7439;50.804;4.602;2022-10-16T01:13:20;17.87;;;16.57;;
14698;SDS011;7439;50.804;4.602;2022-10-16T01:15:51;15.33;;;14.53;;
14698;SDS011;7439;50.804;4.602;2022-10-16T01:18:24;15.97;;;15.00;;
14698;SDS011;7439;50.804;4.602;2022-10-16T01:20:57;14.27;;;13.20;;
14698;SDS011;7439;50.804;4.602;2022-10-16T01:23:33;14.80;;;14.00;;
14698;SDS011;7439;50.804;4.602;2022-10-16T01:26:17;15.93;;;14.73;;
14698;SDS011;7439;50.804;4.602;2022-10-16T01:28:53;17.17;;;13.53;;
14698;SDS011;7439;50.804;4.602;2022-10-16T01:31:24;13.93;;;12.93;;
14698;SDS011;7439;50.804;4.602;2022-10-16T01:33:56;11.90;;;11.30;;
14698;SDS011;7439;50.804;4.602;2022-10-16T01:36:29;11.87;;;10.97;;
14698;SDS011;7439;50.804;4.602;2022-10-16T01:39:02;11.83;;;10.90;;
14698;SDS011;7439;50.804;4.602;2022-10-16T01:41:31;12.03;;;11.27;;
14698;SDS011;7439;50.804;4.602;2022-10-16T01:44:03;12.67;;;11.87;;
14698;SDS011;7439;50.804;4.602;2022-10-16T01:46:34;13.10;;;12.20;;
14698;SDS011;7439;50.804;4.602;2022-10-16T01:49:03;12.83;;;12.17;;
14698;SDS011;7439;50.804;4.602;2022-10-16T01:51:32;15.50;;;14.40;;
14698;SDS011;7439;50.804;4.602;2022-10-16T01:54:01;15.30;;;14.40;;
14698;SDS011;7439;50.804;4.602;2022-10-16T01:56:31;14.40;;;13.57;;
14698;SDS011;7439;50.804;4.602;2022-10-16T01:59:01;14.47;;;13.50;;
14698;SDS011;7439;50.804;4.602;2022-10-16T02:01:33;16.40;;;15.03;;
14698;SDS011;7439;50.804;4.602;2022-10-16T02:04:09;15.83;;;15.03;;
14698;SDS011;7439;50.804;4.602;2022-10-16T02:06:39;15.97;;;14.87;;
14698;SDS011;7439;50.804;4.602;2022-10-16T02:09:06;15.27;;;14.27;;
14698;SDS011;7439;50.804;4.602;2022-10-16T02:11:34;15.53;;;14.73;;
14698;SDS011;7439;50.804;4.602;2022-10-16T02:14:01;13.37;;;12.77;;
14698;SDS011;7439;50.804;4.602;2022-10-16T02:16:33;13.90;;;12.83;;
14698;SDS011;7439;50.804;4.602;2022-10-16T02:19:01;13.33;;;12.73;;
14698;SDS011;7439;50.804;4.602;2022-10-16T02:21:29;13.93;;;12.93;;
14698;SDS011;7439;50.804;4.602;2022-10-16T02:24:05;13.17;;;12.17;;
14698;SDS011;7439;50.804;4.602;2022-10-16T02:26:40;12.80;;;12.00;;
14698;SDS011;7439;50.804;4.602;2022-10-16T02:29:13;12.97;;;11.77;;
14698;SDS011;7439;50.804;4.602;2022-10-16T02:31:45;12.20;;;11.50;;
14698;SDS011;7439;50.804;4.602;2022-10-16T02:34:16;12.77;;;11.97;;
14698;SDS011;7439;50.804;4.602;2022-10-16T02:36:47;11.60;;;10.93;;
14698;SDS011;7439;50.804;4.602;2022-10-16T02:39:16;12.47;;;11.77;;
14698;SDS011;7439;50.804;4.602;2022-10-16T02:41:45;13.60;;;12.73;;
14698;SDS011;7439;50.804;4.602;2022-10-16T02:44:13;13.50;;;12.90;;
14698;SDS011;7439;50.804;4.602;2022-10-16T02:46:40;14.97;;;14.27;;
14698;SDS011;7439;50.804;4.602;2022-10-16T02:49:07;14.30;;;13.50;;
14698;SDS011;7439;50.804;4.602;2022-10-16T02:51:34;14.17;;;13.50;;
14698;SDS011;7439;50.804;4.602;2022-10-16T02:54:02;14.43;;;13.67;;
14698;SDS011;7439;50.804;4.602;2022-10-16T02:56:29;15.73;;;14.80;;
14698;SDS011;7439;50.804;4.602;2022-10-16T02:58:56;15.70;;;14.43;;
14698;SDS011;7439;50.804;4.602;2022-10-16T03:01:25;15.47;;;14.27;;
14698;SDS011;7439;50.804;4.602;2022-10-16T03:03:52;15.67;;;14.77;;
14698;SDS011;7439;50.804;4.602;2022-10-16T03:06:19;15.20;;;14.40;;
14698;SDS011;7439;50.804;4.602;2022-10-16T03:08:46;15.23;;;14.43;;
14698;SDS011;7439;50.804;4.602;2022-10-16T03:11:13;16.00;;;14.77;;
14698;SDS011;7439;50.804;4.602;2022-10-16T03:13:40;15.23;;;14.43;;
14698;SDS011;7439;50.804;4.602;2022-10-16T03:16:07;15.17;;;14.07;;
14698;SDS011;7439;50.804;4.602;2022-10-16T03:18:36;12.60;;;12.00;;
14698;SDS011;7439;50.804;4.602;2022-10-16T03:21:03;13.00;;;12.30;;
14698;SDS011;7439;50.804;4.602;2022-10-16T03:23:31;13.83;;;13.03;;
14698;SDS011;7439;50.804;4.602;2022-10-16T03:25:58;13.93;;;12.90;;
14698;SDS011;7439;50.804;4.602;2022-10-16T03:28:25;14.93;;;14.10;;
14698;SDS011;7439;50.804;4.602;2022-10-16T03:30:52;24.70;;;15.50;;
14698;SDS011;7439;50.804;4.602;2022-10-16T03:33:19;15.20;;;14.20;;
14698;SDS011;7439;50.804;4.602;2022-10-16T03:35:51;16.10;;;15.10;;
14698;SDS011;7439;50.804;4.602;2022-10-16T03:38:20;15.57;;;14.57;;
14698;SDS011;7439;50.804;4.602;2022-10-16T03:40:47;15.27;;;14.37;;
14698;SDS011;7439;50.804;4.602;2022-10-16T03:43:14;15.70;;;14.90;;
14698;SDS011;7439;50.804;4.602;2022-10-16T03:45:42;17.30;;;16.13;;
14698;SDS011;7439;50.804;4.602;2022-10-16T03:48:09;16.07;;;15.00;;
14698;SDS011;7439;50.804;4.602;2022-10-16T03:50:36;16.80;;;15.97;;
14698;SDS011;7439;50.804;4.602;2022-10-16T03:53:05;15.93;;;15.17;;
14698;SDS011;7439;50.804;4.602;2022-10-16T03:55:32;16.30;;;15.30;;
14698;SDS011;7439;50.804;4.602;2022-10-16T03:57:59;16.60;;;15.60;;
14698;SDS011;7439;50.804;4.602;2022-10-16T04:00:26;17.13;;;15.97;;
14698;SDS011;7439;50.804;4.602;2022-10-16T04:02:53;16.10;;;14.93;;
14698;SDS011;7439;50.804;4.602;2022-10-16T04:05:20;16.10;;;15.30;;
14698;SDS011;7439;50.804;4.602;2022-10-16T04:07:47;17.03;;;16.03;;
14698;SDS011;7439;50.804;4.602;2022-10-16T04:10:16;15.07;;;14.33;;
14698;SDS011;7439;50.804;4.602;2022-10-16T04:12:43;16.77;;;15.67;;
14698;SDS011;7439;50.804;4.602;2022-10-16T04:15:10;17.37;;;16.37;;
14698;SDS011;7439;50.804;4.602;2022-10-16T04:17:37;17.53;;;16.63;;
14698;SDS011;7439;50.804;4.602;2022-10-16T04:20:05;16.53;;;15.57;;
14698;SDS011;7439;50.804;4.602;2022-10-16T04:22:32;16.43;;;15.53;;
14698;SDS011;7439;50.804;4.602;2022-10-16T04:24:59;17.50;;;16.37;;
14698;SDS011;7439;50.804;4.602;2022-10-16T04:27:28;16.63;;;15.67;;
14698;SDS011;7439;50.804;4.602;2022-10-16T04:29:56;16.37;;;15.47;;
14698;SDS011;7439;50.804;4.602;2022-10-16T04:32:23;15.70;;;14.63;;
14698;SDS011;7439;50.804;4.602;2022-10-16T04:34:51;14.50;;;13.43;;
14698;SDS011;7439;50.804;4.602;2022-10-16T04:37:18;16.27;;;15.00;;
14698;SDS011;7439;50.804;4.602;2022-10-16T04:39:45;16.90;;;15.70;;
14698;SDS011;7439;50.804;4.602;2022-10-16T04:42:13;16.43;;;15.37;;
14698;SDS011;7439;50.804;4.602;2022-10-16T04:44:41;16.40;;;15.53;;
14698;SDS011;7439;50.804;4.602;2022-10-16T04:47:08;17.10;;;15.90;;
14698;SDS011;7439;50.804;4.602;2022-10-16T04:49:35;15.67;;;14.77;;
14698;SDS011;7439;50.804;4.602;2022-10-16T04:52:02;16.70;;;15.73;;
14698;SDS011;7439;50.804;4.602;2022-10-16T04:54:30;17.03;;;15.63;;
14698;SDS011;7439;50.804;4.602;2022-10-16T04:56:57;16.87;;;15.97;;
14698;SDS011;7439;50.804;4.602;2022-10-16T04:59:24;17.53;;;16.10;;
14698;SDS011;7439;50.804;4.602;2022-10-16T05:01:53;16.63;;;15.27;;
14698;SDS011;7439;50.804;4.602;2022-10-16T05:04:20;15.90;;;14.77;;
14698;SDS011;7439;50.804;4.602;2022-10-16T05:06:47;16.20;;;14.90;;
14698;SDS011;7439;50.804;4.602;2022-10-16T05:09:14;16.50;;;14.83;;
14698;SDS011;7439;50.804;4.602;2022-10-16T05:11:41;16.30;;;15.23;;
14698;SDS011;7439;50.804;4.602;2022-10-16T05:14:08;15.60;;;14.50;;
14698;SDS011;7439;50.804;4.602;2022-10-16T05:16:35;14.83;;;13.60;;
14698;SDS011;7439;50.804;4.602;2022-10-16T05:19:04;15.30;;;14.30;;
14698;SDS011;7439;50.804;4.602;2022-10-16T05:21:31;16.80;;;15.43;;
14698;SDS011;7439;50.804;4.602;2022-10-16T05:23:58;16.17;;;15.00;;
14698;SDS011;7439;50.804;4.602;2022-10-16T05:26:25;16.53;;;15.33;;
14698;SDS011;7439;50.804;4.602;2022-10-16T05:28:52;15.67;;;14.47;;
14698;SDS011;7439;50.804;4.602;2022-10-16T05:31:19;16.47;;;15.43;;
14698;SDS011;7439;50.804;4.602;2022-10-16T05:33:46;15.30;;;14.13;;
14698;SDS011;7439;50.804;4.602;2022-10-16T05:36:15;15.07;;;13.87;;
14698;SDS011;7439;50.804;4.602;2022-10-16T05:38:43;15.77;;;14.67;;
14698;SDS011;7439;50.804;4.602;2022-10-16T05:41:10;16.10;;;15.13;;
14698;SDS011;7439;50.804;4.602;2022-10-16T05:43:37;16.80;;;15.80;;
14698;SDS011;7439;50.804;4.602;2022-10-16T05:46:05;17.17;;;15.83;;
14698;SDS011;7439;50.804;4.602;2022-10-16T05:48:32;16.90;;;15.70;;
14698;SDS011;7439;50.804;4.602;2022-10-16T05:51:00;13.40;;;12.70;;
14698;SDS011;7439;50.804;4.602;2022-10-16T05:53:30;14.07;;;13.27;;
14698;SDS011;7439;50.804;4.602;2022-10-16T05:55:58;15.07;;;14.23;;
14698;SDS011;7439;50.804;4.602;2022-10-16T05:58:28;13.57;;;12.17;;
14698;SDS011;7439;50.804;4.602;2022-10-16T06:00:56;13.10;;;12.40;;
14698;SDS011;7439;50.804;4.602;2022-10-16T06:03:24;12.63;;;11.97;;
14698;SDS011;7439;50.804;4.602;2022-10-16T06:05:52;14.77;;;13.80;;
14698;SDS011;7439;50.804;4.602;2022-10-16T06:08:20;13.80;;;12.67;;
14698;SDS011;7439;50.804;4.602;2022-10-16T06:10:57;13.80;;;13.03;;
14698;SDS011;7439;50.804;4.602;2022-10-16T06:13:26;12.57;;;11.57;;
14698;SDS011;7439;50.804;4.602;2022-10-16T06:15:56;12.83;;;12.07;;
14698;SDS011;7439;50.804;4.602;2022-10-16T06:18:23;13.70;;;13.00;;
14698;SDS011;7439;50.804;4.602;2022-10-16T06:20:51;14.67;;;13.50;;
14698;SDS011;7439;50.804;4.602;2022-10-16T06:23:18;14.17;;;13.17;;
14698;SDS011;7439;50.804;4.602;2022-10-16T06:25:45;14.23;;;13.23;;
14698;SDS011;7439;50.804;4.602;2022-10-16T06:28:14;15.73;;;14.73;;
14698;SDS011;7439;50.804;4.602;2022-10-16T06:30:42;14.90;;;13.87;;
14698;SDS011;7439;50.804;4.602;2022-10-16T06:33:09;14.83;;;13.83;;
14698;SDS011;7439;50.804;4.602;2022-10-16T06:35:37;14.97;;;13.97;;
14698;SDS011;7439;50.804;4.602;2022-10-16T06:38:04;16.30;;;15.23;;
14698;SDS011;7439;50.804;4.602;2022-10-16T06:40:31;14.67;;;13.77;;
14698;SDS011;7439;50.804;4.602;2022-10-16T06:42:58;15.23;;;14.23;;
14698;SDS011;7439;50.804;4.602;2022-10-16T06:45:27;15.07;;;13.87;;
14698;SDS011;7439;50.804;4.602;2022-10-16T06:47:54;14.77;;;13.43;;
14698;SDS011;7439;50.804;4.602;2022-10-16T06:50:21;15.00;;;13.80;;
14698;SDS011;7439;50.804;4.602;2022-10-16T06:52:48;15.60;;;14.50;;
14698;SDS011;7439;50.804;4.602;2022-10-16T06:55:15;14.90;;;13.90;;
14698;SDS011;7439;50.804;4.602;2022-10-16T06:57:43;14.80;;;13.73;;
14698;SDS011;7439;50.804;4.602;2022-10-16T07:00:13;15.27;;;14.03;;
14698;SDS011;7439;50.804;4.602;2022-10-16T07:02:41;14.47;;;13.53;;
14698;SDS011;7439;50.804;4.602;2022-10-16T07:05:08;17.50;;;16.07;;
14698;SDS011;7439;50.804;4.602;2022-10-16T07:07:35;16.20;;;15.40;;
14698;SDS011;7439;50.804;4.602;2022-10-16T07:10:03;15.70;;;14.70;;
14698;SDS011;7439;50.804;4.602;2022-10-16T07:12:30;14.13;;;13.43;;
14698;SDS011;7439;50.804;4.602;2022-10-16T07:14:58;15.50;;;14.50;;
14698;SDS011;7439;50.804;4.602;2022-10-16T07:17:25;16.13;;;14.90;;
14698;SDS011;7439;50.804;4.602;2022-10-16T07:19:53;16.07;;;14.97;;
14698;SDS011;7439;50.804;4.602;2022-10-16T07:22:20;15.03;;;14.23;;
14698;SDS011;7439;50.804;4.602;2022-10-16T07:24:47;14.50;;;13.07;;
14698;SDS011;7439;50.804;4.602;2022-10-16T07:27:15;15.90;;;14.73;;
14698;SDS011;7439;50.804;4.602;2022-10-16T07:29:42;15.20;;;13.57;;
14698;SDS011;7439;50.804;4.602;2022-10-16T07:32:09;12.77;;;11.97;;
14698;SDS011;7439;50.804;4.602;2022-10-16T07:34:36;15.47;;;14.37;;
14698;SDS011;7439;50.804;4.602;2022-10-16T07:37:06;19.80;;;17.90;;
14698;SDS011;7439;50.804;4.602;2022-10-16T07:39:33;15.30;;;14.40;;
14698;SDS011;7439;50.804;4.602;2022-10-16T07:42:00;16.10;;;15.20;;
14698;SDS011;7439;50.804;4.602;2022-10-16T07:44:27;19.63;;;18.43;;
14698;SDS011;7439;50.804;4.602;2022-10-16T07:46:54;16.60;;;15.40;;
14698;SDS011;7439;50.804;4.602;2022-10-16T07:49:21;17.20;;;16.20;;
14698;SDS011;7439;50.804;4.602;2022-10-16T07:51:48;15.67;;;14.67;;
14698;SDS011;7439;50.804;4.602;2022-10-16T07:54:17;13.40;;;12.80;;
14698;SDS011;7439;50.804;4.602;2022-10-16T07:56:44;14.13;;;13.30;;
14698;SDS011;7439;50.804;4.602;2022-10-16T07:59:11;15.87;;;14.97;;
14698;SDS011;7439;50.804;4.602;2022-10-16T08:01:38;14.77;;;13.80;;
14698;SDS011;7439;50.804;4.602;2022-10-16T08:04:07;16.73;;;15.93;;
14698;SDS011;7439;50.804;4.602;2022-10-16T08:06:36;17.90;;;16.93;;
14698;SDS011;7439;50.804;4.602;2022-10-16T08:09:04;20.07;;;19.07;;
14698;SDS011;7439;50.804;4.602;2022-10-16T08:11:33;21.43;;;20.53;;
14698;SDS011;7439;50.804;4.602;2022-10-16T08:14:00;21.47;;;20.57;;
14698;SDS011;7439;50.804;4.602;2022-10-16T08:16:28;23.17;;;22.17;;
14698;SDS011;7439;50.804;4.602;2022-10-16T08:18:55;28.17;;;26.97;;
14698;SDS011;7439;50.804;4.602;2022-10-16T08:21:22;26.83;;;25.73;;
14698;SDS011;7439;50.804;4.602;2022-10-16T08:23:49;33.07;;;31.67;;
14698;SDS011;7439;50.804;4.602;2022-10-16T08:26:17;33.17;;;31.67;;
14698;SDS011;7439;50.804;4.602;2022-10-16T08:28:45;30.57;;;29.27;;
14698;SDS011;7439;50.804;4.602;2022-10-16T08:31:16;29.10;;;27.70;;
14698;SDS011;7439;50.804;4.602;2022-10-16T08:33:44;27.80;;;26.47;;
14698;SDS011;7439;50.804;4.602;2022-10-16T08:36:12;24.93;;;23.83;;
14698;SDS011;7439;50.804;4.602;2022-10-16T08:38:40;28.97;;;27.67;;
14698;SDS011;7439;50.804;4.602;2022-10-16T08:41:16;34.73;;;33.07;;
14698;SDS011;7439;50.804;4.602;2022-10-16T08:44:07;32.57;;;30.57;;
14698;SDS011;7439;50.804;4.602;2022-10-16T08:46:48;29.83;;;28.43;;
14698;SDS011;7439;50.804;4.602;2022-10-16T08:49:23;30.67;;;29.30;;
14698;SDS011;7439;50.804;4.602;2022-10-16T08:51:50;32.43;;;30.97;;
14698;SDS011;7439;50.804;4.602;2022-10-16T08:54:22;35.73;;;34.07;;
14698;SDS011;7439;50.804;4.602;2022-10-16T08:56:55;33.23;;;31.63;;
14698;SDS011;7439;50.804;4.602;2022-10-16T08:59:24;27.87;;;26.47;;
14698;SDS011;7439;50.804;4.602;2022-10-16T09:01:51;33.13;;;31.73;;
14698;SDS011;7439;50.804;4.602;2022-10-16T09:07:18;19.97;;;18.87;;
14698;SDS011;7439;50.804;4.602;2022-10-16T09:09:56;17.40;;;16.47;;
14698;SDS011;7439;50.804;4.602;2022-10-16T09:12:38;15.77;;;14.73;;
14698;SDS011;7439;50.804;4.602;2022-10-16T09:15:23;14.43;;;13.37;;
14698;SDS011;7439;50.804;4.602;2022-10-16T09:17:56;20.07;;;19.10;;
14698;SDS011;7439;50.804;4.602;2022-10-16T09:20:31;18.03;;;17.20;;
14698;SDS011;7439;50.804;4.602;2022-10-16T09:23:15;14.30;;;13.53;;
14698;SDS011;7439;50.804;4.602;2022-10-16T09:25:44;12.50;;;12.00;;
14698;SDS011;7439;50.804;4.602;2022-10-16T09:28:14;11.90;;;11.30;;
14698;SDS011;7439;50.804;4.602;2022-10-16T09:30:43;8.27;;;7.63;;
14698;SDS011;7439;50.804;4.602;2022-10-16T09:33:11;11.10;;;10.60;;
14698;SDS011;7439;50.804;4.602;2022-10-16T09:35:40;10.03;;;9.23;;
14698;SDS011;7439;50.804;4.602;2022-10-16T09:38:09;9.47;;;8.97;;
14698;SDS011;7439;50.804;4.602;2022-10-16T09:40:47;6.93;;;6.43;;
14698;SDS011;7439;50.804;4.602;2022-10-16T09:43:18;8.03;;;7.30;;
14698;SDS011;7439;50.804;4.602;2022-10-16T09:45:56;5.17;;;4.80;;
14698;SDS011;7439;50.804;4.602;2022-10-16T09:48:25;5.30;;;4.90;;
14698;SDS011;7439;50.804;4.602;2022-10-16T09:50:57;4.70;;;4.30;;
14698;SDS011;7439;50.804;4.602;2022-10-16T09:53:26;3.73;;;2.93;;
14698;SDS011;7439;50.804;4.602;2022-10-16T09:56:05;3.87;;;2.47;;
14698;SDS011;7439;50.804;4.602;2022-10-16T09:58:33;2.27;;;2.07;;
14698;SDS011;7439;50.804;4.602;2022-10-16T10:01:01;2.27;;;1.97;;
14698;SDS011;7439;50.804;4.602;2022-10-16T10:03:37;2.27;;;1.57;;
14698;SDS011;7439;50.804;4.602;2022-10-16T10:06:07;1.63;;;1.43;;
14698;SDS011;7439;50.804;4.602;2022-10-16T10:09:04;4.50;;;1.60;;
14698;SDS011;7439;50.804;4.602;2022-10-16T10:11:40;1.90;;;1.50;;
14698;SDS011;7439;50.804;4.602;2022-10-16T10:19:47;4.20;;;1.27;;
14698;SDS011;7439;50.804;4.602;2022-10-16T10:22:26;4.13;;;1.50;;
14698;SDS011;7439;50.804;4.602;2022-10-16T10:28:07;3.30;;;1.10;;
14698;SDS011;7439;50.804;4.602;2022-10-16T10:30:56;3.13;;;1.23;;
14698;SDS011;7439;50.804;4.602;2022-10-16T10:33:30;4.80;;;1.83;;
14698;SDS011;7439;50.804;4.602;2022-10-16T10:36:08;3.17;;;1.37;;
14698;SDS011;7439;50.804;4.602;2022-10-16T10:38:54;2.60;;;1.23;;
14698;SDS011;7439;50.804;4.602;2022-10-16T10:41:28;1.23;;;1.00;;
14698;SDS011;7439;50.804;4.602;2022-10-16T10:44:22;3.43;;;1.30;;
14698;SDS011;7439;50.804;4.602;2022-10-16T10:47:01;2.00;;;1.27;;
14698;SDS011;7439;50.804;4.602;2022-10-16T10:49:43;4.90;;;1.47;;
14698;SDS011;7439;50.804;4.602;2022-10-16T10:52:31;3.57;;;1.37;;
14698;SDS011;7439;50.804;4.602;2022-10-16T10:55:14;2.73;;;1.30;;
14698;SDS011;7439;50.804;4.602;2022-10-16T10:57:52;3.57;;;1.27;;
14698;SDS011;7439;50.804;4.602;2022-10-16T11:00:42;2.27;;;1.10;;
14698;SDS011;7439;50.804;4.602;2022-10-16T11:03:25;6.77;;;1.67;;
14698;SDS011;7439;50.804;4.602;2022-10-16T11:06:04;3.43;;;1.37;;
14698;SDS011;7439;50.804;4.602;2022-10-16T11:08:34;3.20;;;0.90;;
14698;SDS011;7439;50.804;4.602;2022-10-16T11:11:06;1.47;;;1.10;;
14698;SDS011;7439;50.804;4.602;2022-10-16T11:13:38;6.30;;;1.43;;
14698;SDS011;7439;50.804;4.602;2022-10-16T11:16:11;3.17;;;1.07;;
14698;SDS011;7439;50.804;4.602;2022-10-16T11:18:43;3.53;;;1.17;;
14698;SDS011;7439;50.804;4.602;2022-10-16T11:21:17;7.90;;;1.90;;
14698;SDS011;7439;50.804;4.602;2022-10-16T11:23:48;5.03;;;1.07;;
14698;SDS011;7439;50.804;4.602;2022-10-16T11:26:20;1.00;;;0.90;;
14698;SDS011;7439;50.804;4.602;2022-10-16T11:28:51;2.70;;;1.20;;
14698;SDS011;7439;50.804;4.602;2022-10-16T11:31:23;4.93;;;1.07;;
14698;SDS011;7439;50.804;4.602;2022-10-16T11:33:59;1.77;;;1.10;;
14698;SDS011;7439;50.804;4.602;2022-10-16T11:36:33;3.53;;;1.33;;
14698;SDS011;7439;50.804;4.602;2022-10-16T11:39:08;7.43;;;2.23;;
14698;SDS011;7439;50.804;4.602;2022-10-16T11:41:47;2.10;;;1.00;;
14698;SDS011;7439;50.804;4.602;2022-10-16T11:44:20;2.13;;;1.37;;
14698;SDS011;7439;50.804;4.602;2022-10-16T11:47:19;4.30;;;1.60;;
14698;SDS011;7439;50.804;4.602;2022-10-16T11:49:53;2.97;;;1.70;;
14698;SDS011;7439;50.804;4.602;2022-10-16T11:52:28;2.37;;;1.03;;
14698;SDS011;7439;50.804;4.602;2022-10-16T11:55:04;4.57;;;1.50;;
14698;SDS011;7439;50.804;4.602;2022-10-16T11:57:40;6.10;;;1.33;;
14698;SDS011;7439;50.804;4.602;2022-10-16T12:00:14;7.77;;;1.90;;
14698;SDS011;7439;50.804;4.602;2022-10-16T12:02:50;4.33;;;1.20;;
14698;SDS011;7439;50.804;4.602;2022-10-16T12:05:25;1.63;;;1.33;;
14698;SDS011;7439;50.804;4.602;2022-10-16T12:08:04;4.47;;;1.37;;
14698;SDS011;7439;50.804;4.602;2022-10-16T12:10:36;2.33;;;1.33;;
14698;SDS011;7439;50.804;4.602;2022-10-16T12:13:05;1.40;;;1.00;;
14698;SDS011;7439;50.804;4.602;2022-10-16T12:15:47;1.67;;;1.20;;
14698;SDS011;7439;50.804;4.602;2022-10-16T12:18:20;1.20;;;1.10;;
14698;SDS011;7439;50.804;4.602;2022-10-16T12:20:53;3.60;;;1.20;;
14698;SDS011;7439;50.804;4.602;2022-10-16T12:23:25;1.57;;;1.13;;
14698;SDS011;7439;50.804;4.602;2022-10-16T12:25:54;11.13;;;1.63;;
14698;SDS011;7439;50.804;4.602;2022-10-16T12:28:26;1.03;;;0.93;;
14698;SDS011;7439;50.804;4.602;2022-10-16T12:30:54;10.90;;;1.87;;
14698;SDS011;7439;50.804;4.602;2022-10-16T12:33:24;2.43;;;1.30;;
14698;SDS011;7439;50.804;4.602;2022-10-16T12:35:52;0.80;;;0.80;;
14698;SDS011;7439;50.804;4.602;2022-10-16T12:38:21;1.00;;;0.90;;
14698;SDS011;7439;50.804;4.602;2022-10-16T12:40:55;1.83;;;0.93;;
14698;SDS011;7439;50.804;4.602;2022-10-16T12:43:26;0.90;;;0.90;;
14698;SDS011;7439;50.804;4.602;2022-10-16T12:46:03;1.20;;;1.10;;
14698;SDS011;7439;50.804;4.602;2022-10-16T12:48:32;2.07;;;1.17;;
14698;SDS011;7439;50.804;4.602;2022-10-16T12:51:09;1.97;;;1.13;;
14698;SDS011;7439;50.804;4.602;2022-10-16T12:53:38;0.90;;;0.90;;
14698;SDS011;7439;50.804;4.602;2022-10-16T12:56:09;2.87;;;1.30;;
14698;SDS011;7439;50.804;4.602;2022-10-16T12:58:55;1.10;;;1.10;;
14698;SDS011;7439;50.804;4.602;2022-10-16T13:01:34;1.63;;;1.20;;
14698;SDS011;7439;50.804;4.602;2022-10-16T13:04:11;1.57;;;1.33;;
14698;SDS011;7439;50.804;4.602;2022-10-16T13:06:50;4.90;;;1.50;;
14698;SDS011;7439;50.804;4.602;2022-10-16T13:09:29;1.23;;;1.20;;
14698;SDS011;7439;50.804;4.602;2022-10-16T13:12:11;2.40;;;1.20;;
14698;SDS011;7439;50.804;4.602;2022-10-16T13:17:50;5.40;;;1.43;;
14698;SDS011;7439;50.804;4.602;2022-10-16T13:20:25;2.63;;;1.17;;
14698;SDS011;7439;50.804;4.602;2022-10-16T13:23:00;2.37;;;1.90;;
14698;SDS011;7439;50.804;4.602;2022-10-16T13:25:40;1.93;;;1.53;;
14698;SDS011;7439;50.804;4.602;2022-10-16T13:28:15;5.27;;;2.37;;
14698;SDS011;7439;50.804;4.602;2022-10-16T13:30:51;2.27;;;1.60;;
14698;SDS011;7439;50.804;4.602;2022-10-16T13:33:20;3.10;;;1.77;;
14698;SDS011;7439;50.804;4.602;2022-10-16T13:35:55;4.63;;;2.17;;
14698;SDS011;7439;50.804;4.602;2022-10-16T13:38:24;2.50;;;1.60;;
14698;SDS011;7439;50.804;4.602;2022-10-16T13:40:55;6.80;;;2.07;;
14698;SDS011;7439;50.804;4.602;2022-10-16T13:43:24;1.37;;;1.27;;
14698;SDS011;7439;50.804;4.602;2022-10-16T13:45:57;1.57;;;1.43;;
14698;SDS011;7439;50.804;4.602;2022-10-16T13:48:27;5.50;;;1.97;;
14698;SDS011;7439;50.804;4.602;2022-10-16T13:51:01;3.97;;;1.77;;
14698;SDS011;7439;50.804;4.602;2022-10-16T13:53:33;7.03;;;1.80;;
14698;SDS011;7439;50.804;4.602;2022-10-16T13:56:04;4.53;;;1.50;;
14698;SDS011;7439;50.804;4.602;2022-10-16T13:58:33;2.60;;;1.20;;
14698;SDS011;7439;50.804;4.602;2022-10-16T14:01:00;4.30;;;1.73;;
14698;SDS011;7439;50.804;4.602;2022-10-16T14:03:30;4.20;;;1.60;;
14698;SDS011;7439;50.804;4.602;2022-10-16T14:06:01;2.63;;;1.30;;
14698;SDS011;7439;50.804;4.602;2022-10-16T14:08:30;2.03;;;1.30;;
14698;SDS011;7439;50.804;4.602;2022-10-16T14:10:59;3.47;;;1.47;;
14698;SDS011;7439;50.804;4.602;2022-10-16T14:13:34;3.00;;;1.10;;
14698;SDS011;7439;50.804;4.602;2022-10-16T14:16:06;9.33;;;1.63;;
14698;SDS011;7439;50.804;4.602;2022-10-16T14:18:35;2.00;;;1.37;;
14698;SDS011;7439;50.804;4.602;2022-10-16T14:21:05;1.40;;;1.20;;
14698;SDS011;7439;50.804;4.602;2022-10-16T14:23:35;1.23;;;1.20;;
14698;SDS011;7439;50.804;4.602;2022-10-16T14:26:13;6.33;;;1.37;;
14698;SDS011;7439;50.804;4.602;2022-10-16T14:28:43;7.30;;;1.70;;
14698;SDS011;7439;50.804;4.602;2022-10-16T14:33:57;1.30;;;1.20;;
14698;SDS011;7439;50.804;4.602;2022-10-16T14:36:25;4.07;;;1.30;;
14698;SDS011;7439;50.804;4.602;2022-10-16T14:39:01;2.20;;;1.30;;
14698;SDS011;7439;50.804;4.602;2022-10-16T14:41:30;3.37;;;1.70;;
14698;SDS011;7439;50.804;4.602;2022-10-16T14:44:02;4.27;;;2.00;;
14698;SDS011;7439;50.804;4.602;2022-10-16T14:46:33;6.63;;;2.70;;
14698;SDS011;7439;50.804;4.602;2022-10-16T14:49:03;3.70;;;1.87;;
14698;SDS011;7439;50.804;4.602;2022-10-16T14:51:40;7.23;;;1.73;;
14698;SDS011;7439;50.804;4.602;2022-10-16T14:54:10;2.77;;;1.60;;
14698;SDS011;7439;50.804;4.602;2022-10-16T14:56:42;7.23;;;1.53;;
14698;SDS011;7439;50.804;4.602;2022-10-16T14:59:16;1.67;;;1.30;;
14698;SDS011;7439;50.804;4.602;2022-10-16T15:01:46;8.43;;;1.70;;
14698;SDS011;7439;50.804;4.602;2022-10-16T15:04:14;7.13;;;1.90;;
14698;SDS011;7439;50.804;4.602;2022-10-16T15:06:41;1.97;;;1.53;;
14698;SDS011;7439;50.804;4.602;2022-10-16T15:09:08;4.37;;;2.20;;
14698;SDS011;7439;50.804;4.602;2022-10-16T15:11:35;4.80;;;2.00;;
14698;SDS011;7439;50.804;4.602;2022-10-16T15:14:03;6.27;;;2.50;;
14698;SDS011;7439;50.804;4.602;2022-10-16T15:16:31;15.93;;;2.20;;
14698;SDS011;7439;50.804;4.602;2022-10-16T15:18:59;5.90;;;2.73;;
14698;SDS011;7439;50.804;4.602;2022-10-16T15:21:27;4.57;;;1.97;;